sensor_id;sensor_type;location;lat;lon;timestamp;pressure;altitude;pressure_sealevel;temperature;humidity
48848;BME280;36611;51.638;5.784;2023-02-10T00:01:20;103446.13;;;5.67;49.52
48848;BME280;36611;51.638;5.784;2023-02-10T00:03:48;103444.41;;;5.58;49.54
48848;BME280;36611;51.638;5.784;2023-02-10T00:06:16;103442.66;;;5.54;49.57
48848;BME280;36611;51.638;5.784;2023-02-10T00:08:47;103435.59;;;5.50;49.76
48848;BME280;36611;51.638;5.784;2023-02-10T00:11:14;103438.25;;;5.50;49.76
48848;BME280;36611;51.638;5.784;2023-02-10T00:13:42;103440.94;;;5.49;49.73
48848;BME280;36611;51.638;5.784;2023-02-10T00:16:12;103445.41;;;5.47;49.96
48848;BME280;36611;51.638;5.784;2023-02-10T00:18:40;103450.75;;;5.43;50.03
48848;BME280;36611;51.638;5.784;2023-02-10T00:21:09;103450.78;;;5.40;50.06
48848;BME280;36611;51.638;5.784;2023-02-10T00:23:36;103458.81;;;5.37;50.15
48848;BME280;36611;51.638;5.784;2023-02-10T00:26:05;103454.38;;;5.36;50.19
48848;BME280;36611;51.638;5.784;2023-02-10T00:28:33;103457.94;;;5.34;50.30
48848;BME280;36611;51.638;5.784;2023-02-10T00:31:11;103458.88;;;5.30;50.22
48848;BME280;36611;51.638;5.784;2023-02-10T00:33:39;103455.34;;;5.26;50.24
48848;BME280;36611;51.638;5.784;2023-02-10T00:36:11;103460.69;;;5.23;50.49
48848;BME280;36611;51.638;5.784;2023-02-10T00:38:39;103468.69;;;5.23;50.39
48848;BME280;36611;51.638;5.784;2023-02-10T00:41:18;103456.25;;;5.19;50.39
48848;BME280;36611;51.638;5.784;2023-02-10T00:43:45;103461.59;;;5.15;50.46
48848;BME280;36611;51.638;5.784;2023-02-10T00:46:13;103464.31;;;5.08;50.41
48848;BME280;36611;51.638;5.784;2023-02-10T00:48:42;103468.78;;;5.05;50.57
48848;BME280;36611;51.638;5.784;2023-02-10T00:51:09;103452.81;;;5.02;50.52
48848;BME280;36611;51.638;5.784;2023-02-10T00:53:36;103464.34;;;5.01;50.62
48848;BME280;36611;51.638;5.784;2023-02-10T00:56:03;103463.47;;;5.00;50.69
48848;BME280;36611;51.638;5.784;2023-02-10T00:58:30;103457.25;;;5.00;51.01
48848;BME280;36611;51.638;5.784;2023-02-10T01:00:57;103459.03;;;4.99;50.78
48848;BME280;36611;51.638;5.784;2023-02-10T01:03:24;103463.47;;;4.99;50.71
48848;BME280;36611;51.638;5.784;2023-02-10T01:05:53;103471.47;;;4.99;50.90
48848;BME280;36611;51.638;5.784;2023-02-10T01:08:20;103463.50;;;4.97;51.08
48848;BME280;36611;51.638;5.784;2023-02-10T01:10:46;103467.94;;;4.97;51.03
48848;BME280;36611;51.638;5.784;2023-02-10T01:13:14;103467.03;;;4.98;51.08
48848;BME280;36611;51.638;5.784;2023-02-10T01:15:46;103472.34;;;4.99;51.18
48848;BME280;36611;51.638;5.784;2023-02-10T01:18:14;103475.91;;;4.98;51.09
48848;BME280;36611;51.638;5.784;2023-02-10T01:20:42;103475.91;;;4.98;51.25
48848;BME280;36611;51.638;5.784;2023-02-10T01:23:09;103481.25;;;4.98;51.27
48848;BME280;36611;51.638;5.784;2023-02-10T01:25:36;103484.78;;;4.97;51.06
48848;BME280;36611;51.638;5.784;2023-02-10T01:28:05;103487.47;;;4.96;51.14
48848;BME280;36611;51.638;5.784;2023-02-10T01:30:32;103488.38;;;4.92;51.23
48848;BME280;36611;51.638;5.784;2023-02-10T01:32:59;103487.50;;;4.88;51.31
48848;BME280;36611;51.638;5.784;2023-02-10T01:35:25;103490.19;;;4.85;51.21
48848;BME280;36611;51.638;5.784;2023-02-10T01:37:53;103488.41;;;4.84;51.43
48848;BME280;36611;51.638;5.784;2023-02-10T01:40:21;103491.09;;;4.83;51.41
48848;BME280;36611;51.638;5.784;2023-02-10T01:42:50;103491.97;;;4.82;51.45
48848;BME280;36611;51.638;5.784;2023-02-10T01:47:45;103484.88;;;4.82;51.54
48848;BME280;36611;51.638;5.784;2023-02-10T01:50:14;103491.09;;;4.83;51.48
48848;BME280;36611;51.638;5.784;2023-02-10T01:52:41;103484.88;;;4.82;51.64
48848;BME280;36611;51.638;5.784;2023-02-10T01:55:13;103487.53;;;4.81;51.57
48848;BME280;36611;51.638;5.784;2023-02-10T01:57:43;103481.34;;;4.80;51.53
48848;BME280;36611;51.638;5.784;2023-02-10T02:00:12;103478.69;;;4.78;51.50
48848;BME280;36611;51.638;5.784;2023-02-10T02:02:40;103477.81;;;4.76;51.54
48848;BME280;36611;51.638;5.784;2023-02-10T02:05:22;103475.16;;;4.75;51.59
48848;BME280;36611;51.638;5.784;2023-02-10T02:07:53;103485.81;;;4.73;51.55
48848;BME280;36611;51.638;5.784;2023-02-10T02:10:23;103482.28;;;4.68;51.59
48848;BME280;36611;51.638;5.784;2023-02-10T02:13:00;103477.84;;;4.67;51.61
48848;BME280;36611;51.638;5.784;2023-02-10T02:18:17;103469.88;;;4.63;51.58
48848;BME280;36611;51.638;5.784;2023-02-10T02:23:58;103473.44;;;4.59;51.60
48848;BME280;36611;51.638;5.784;2023-02-10T02:32:22;103477.91;;;4.57;51.55
48848;BME280;36611;51.638;5.784;2023-02-10T02:34:58;103483.22;;;4.57;51.70
48848;BME280;36611;51.638;5.784;2023-02-10T02:37:30;103481.44;;;4.56;51.75
48848;BME280;36611;51.638;5.784;2023-02-10T02:39:58;103491.22;;;4.55;51.70
48848;BME280;36611;51.638;5.784;2023-02-10T02:42:27;103485.88;;;4.55;51.70
48848;BME280;36611;51.638;5.784;2023-02-10T02:45:08;103490.31;;;4.55;51.73
48848;BME280;36611;51.638;5.784;2023-02-10T02:50:26;103481.44;;;4.56;51.87
48848;BME280;36611;51.638;5.784;2023-02-10T02:53:10;103475.25;;;4.57;51.82
48848;BME280;36611;51.638;5.784;2023-02-10T03:01:09;103475.22;;;4.60;51.88
48848;BME280;36611;51.638;5.784;2023-02-10T03:03:37;103484.97;;;4.61;51.83
48848;BME280;36611;51.638;5.784;2023-02-10T03:06:06;103488.53;;;4.61;52.05
48848;BME280;36611;51.638;5.784;2023-02-10T03:08:36;103484.97;;;4.62;52.00
48848;BME280;36611;51.638;5.784;2023-02-10T03:11:05;103484.09;;;4.63;52.08
48848;BME280;36611;51.638;5.784;2023-02-10T03:13:31;103497.38;;;4.65;51.98
48848;BME280;36611;51.638;5.784;2023-02-10T03:15:59;103502.72;;;4.63;52.12
48848;BME280;36611;51.638;5.784;2023-02-10T03:18:26;103504.50;;;4.63;52.17
48848;BME280;36611;51.638;5.784;2023-02-10T03:20:52;103506.25;;;4.62;52.08
48848;BME280;36611;51.638;5.784;2023-02-10T03:23:19;103508.94;;;4.62;52.12
48848;BME280;36611;51.638;5.784;2023-02-10T03:25:46;103510.72;;;4.60;52.05
48848;BME280;36611;51.638;5.784;2023-02-10T03:28:13;103512.50;;;4.58;52.16
48848;BME280;36611;51.638;5.784;2023-02-10T03:30:41;103513.38;;;4.57;52.09
48848;BME280;36611;51.638;5.784;2023-02-10T03:33:16;103520.47;;;4.57;52.23
48848;BME280;36611;51.638;5.784;2023-02-10T03:35:44;103515.16;;;4.55;52.14
48848;BME280;36611;51.638;5.784;2023-02-10T03:38:12;103516.94;;;4.53;52.24
48848;BME280;36611;51.638;5.784;2023-02-10T03:40:39;103515.16;;;4.54;52.31
48848;BME280;36611;51.638;5.784;2023-02-10T03:43:05;103517.84;;;4.52;52.15
48848;BME280;36611;51.638;5.784;2023-02-10T03:45:32;103514.28;;;4.50;52.27
48848;BME280;36611;51.638;5.784;2023-02-10T03:47:59;103517.84;;;4.51;52.26
48848;BME280;36611;51.638;5.784;2023-02-10T03:50:26;103511.63;;;4.49;52.24
48848;BME280;36611;51.638;5.784;2023-02-10T03:52:52;103516.97;;;4.49;52.20
48848;BME280;36611;51.638;5.784;2023-02-10T03:55:19;103516.09;;;4.46;52.18
48848;BME280;36611;51.638;5.784;2023-02-10T03:57:46;103516.94;;;4.45;52.18
48848;BME280;36611;51.638;5.784;2023-02-10T04:00:14;103514.28;;;4.45;52.31
48848;BME280;36611;51.638;5.784;2023-02-10T04:02:41;103518.72;;;4.45;52.07
48848;BME280;36611;51.638;5.784;2023-02-10T04:05:08;103524.91;;;4.44;52.21
48848;BME280;36611;51.638;5.784;2023-02-10T04:07:36;103520.50;;;4.41;52.25
48848;BME280;36611;51.638;5.784;2023-02-10T04:10:03;103519.63;;;4.39;52.38
48848;BME280;36611;51.638;5.784;2023-02-10T04:12:31;103512.53;;;4.37;52.17
48848;BME280;36611;51.638;5.784;2023-02-10T04:14:58;103515.19;;;4.35;52.32
48848;BME280;36611;51.638;5.784;2023-02-10T04:17:24;103510.75;;;4.33;52.38
48848;BME280;36611;51.638;5.784;2023-02-10T04:19:51;103514.31;;;4.32;52.48
48848;BME280;36611;51.638;5.784;2023-02-10T04:22:18;103510.78;;;4.30;52.26
48848;BME280;36611;51.638;5.784;2023-02-10T04:24:45;103508.13;;;4.27;52.23
48848;BME280;36611;51.638;5.784;2023-02-10T04:27:11;103510.78;;;4.24;52.16
48848;BME280;36611;51.638;5.784;2023-02-10T04:29:38;103512.56;;;4.20;52.19
48848;BME280;36611;51.638;5.784;2023-02-10T04:32:07;103512.56;;;4.17;52.28
48848;BME280;36611;51.638;5.784;2023-02-10T04:34:34;103517.91;;;4.14;52.22
48848;BME280;36611;51.638;5.784;2023-02-10T04:37:01;103518.78;;;4.13;52.26
48848;BME280;36611;51.638;5.784;2023-02-10T04:39:28;103517.03;;;4.10;52.30
48848;BME280;36611;51.638;5.784;2023-02-10T04:41:54;103509.94;;;4.09;52.36
48848;BME280;36611;51.638;5.784;2023-02-10T04:44:21;103517.03;;;4.07;52.21
48848;BME280;36611;51.638;5.784;2023-02-10T04:46:48;103509.94;;;4.05;52.30
48848;BME280;36611;51.638;5.784;2023-02-10T04:49:16;103511.72;;;4.03;52.16
48848;BME280;36611;51.638;5.784;2023-02-10T04:51:43;103515.25;;;4.02;52.33
48848;BME280;36611;51.638;5.784;2023-02-10T04:54:10;103520.56;;;4.02;52.32
48848;BME280;36611;51.638;5.784;2023-02-10T04:56:36;103522.34;;;4.01;52.27
48848;BME280;36611;51.638;5.784;2023-02-10T04:59:03;103519.69;;;4.01;52.29
48848;BME280;36611;51.638;5.784;2023-02-10T05:01:30;103523.25;;;4.00;52.23
48848;BME280;36611;51.638;5.784;2023-02-10T05:03:56;103525.00;;;4.00;52.22
48848;BME280;36611;51.638;5.784;2023-02-10T05:06:23;103527.66;;;4.00;52.38
48848;BME280;36611;51.638;5.784;2023-02-10T05:08:50;103529.44;;;3.98;52.31
48848;BME280;36611;51.638;5.784;2023-02-10T05:11:17;103533.00;;;3.98;52.25
48848;BME280;36611;51.638;5.784;2023-02-10T05:13:45;103534.75;;;3.98;52.44
48848;BME280;36611;51.638;5.784;2023-02-10T05:16:12;103542.75;;;3.99;52.36
48848;BME280;36611;51.638;5.784;2023-02-10T05:18:40;103549.81;;;4.00;52.53
48848;BME280;36611;51.638;5.784;2023-02-10T05:21:08;103555.16;;;4.00;52.59
48848;BME280;36611;51.638;5.784;2023-02-10T05:23:36;103549.81;;;4.00;52.38
48848;BME280;36611;51.638;5.784;2023-02-10T05:26:03;103557.81;;;4.03;52.53
48848;BME280;36611;51.638;5.784;2023-02-10T05:28:29;103542.72;;;4.05;52.79
48848;BME280;36611;51.638;5.784;2023-02-10T05:30:59;103545.38;;;4.10;52.75
48848;BME280;36611;51.638;5.784;2023-02-10T05:33:26;103548.94;;;4.15;52.82
48848;BME280;36611;51.638;5.784;2023-02-10T05:35:53;103552.47;;;4.20;52.94
48848;BME280;36611;51.638;5.784;2023-02-10T05:38:19;103548.91;;;4.27;53.19
48848;BME280;36611;51.638;5.784;2023-02-10T05:40:48;103554.22;;;4.35;53.21
48848;BME280;36611;51.638;5.784;2023-02-10T05:43:15;103548.88;;;4.42;53.25
48848;BME280;36611;51.638;5.784;2023-02-10T05:45:42;103552.44;;;4.47;53.32
48848;BME280;36611;51.638;5.784;2023-02-10T05:48:08;103555.97;;;4.56;53.45
48848;BME280;36611;51.638;5.784;2023-02-10T05:50:35;103555.94;;;4.62;53.58
48848;BME280;36611;51.638;5.784;2023-02-10T05:53:12;103549.72;;;4.69;53.61
48848;BME280;36611;51.638;5.784;2023-02-10T05:55:39;103550.59;;;4.74;53.72
48848;BME280;36611;51.638;5.784;2023-02-10T05:58:06;103551.44;;;4.79;53.83
48848;BME280;36611;51.638;5.784;2023-02-10T06:00:33;103549.66;;;4.83;53.92
48848;BME280;36611;51.638;5.784;2023-02-10T06:02:59;103549.63;;;4.89;53.99
48848;BME280;36611;51.638;5.784;2023-02-10T06:05:26;103548.72;;;4.94;53.90
48848;BME280;36611;51.638;5.784;2023-02-10T06:07:53;103546.94;;;4.98;54.00
48848;BME280;36611;51.638;5.784;2023-02-10T06:10:21;103549.56;;;5.02;54.30
48848;BME280;36611;51.638;5.784;2023-02-10T06:12:49;103551.34;;;5.05;54.12
48848;BME280;36611;51.638;5.784;2023-02-10T06:15:15;103548.66;;;5.08;54.48
48848;BME280;36611;51.638;5.784;2023-02-10T06:17:47;103541.53;;;5.11;54.35
48848;BME280;36611;51.638;5.784;2023-02-10T06:20:14;103545.94;;;5.17;54.41
48848;BME280;36611;51.638;5.784;2023-02-10T06:22:40;103551.28;;;5.22;54.47
48848;BME280;36611;51.638;5.784;2023-02-10T06:25:09;103545.03;;;5.27;54.57
48848;BME280;36611;51.638;5.784;2023-02-10T06:27:35;103543.22;;;5.31;54.74
48848;BME280;36611;51.638;5.784;2023-02-10T06:30:02;103548.53;;;5.35;54.70
48848;BME280;36611;51.638;5.784;2023-02-10T06:32:29;103536.09;;;5.37;54.73
48848;BME280;36611;51.638;5.784;2023-02-10T06:34:55;103528.94;;;5.41;54.77
48848;BME280;36611;51.638;5.784;2023-02-10T06:37:22;103542.25;;;5.44;54.81
48848;BME280;36611;51.638;5.784;2023-02-10T06:39:48;103538.69;;;5.48;54.84
48848;BME280;36611;51.638;5.784;2023-02-10T06:42:15;103543.09;;;5.52;54.91
48848;BME280;36611;51.638;5.784;2023-02-10T06:44:42;103541.31;;;5.53;55.08
48848;BME280;36611;51.638;5.784;2023-02-10T06:47:09;103537.72;;;5.58;54.98
48848;BME280;36611;51.638;5.784;2023-02-10T06:49:35;103540.34;;;5.61;55.04
48848;BME280;36611;51.638;5.784;2023-02-10T06:52:02;103539.44;;;5.64;55.14
48848;BME280;36611;51.638;5.784;2023-02-10T06:54:42;103541.19;;;5.68;55.34
48848;BME280;36611;51.638;5.784;2023-02-10T06:57:08;103547.38;;;5.73;55.18
48848;BME280;36611;51.638;5.784;2023-02-10T06:59:35;103530.47;;;5.75;55.26
48848;BME280;36611;51.638;5.784;2023-02-10T07:02:02;103544.66;;;5.78;55.44
48848;BME280;36611;51.638;5.784;2023-02-10T07:04:30;103554.41;;;5.82;55.49
48848;BME280;36611;51.638;5.784;2023-02-10T07:06:58;103557.94;;;5.85;55.00
48848;BME280;36611;51.638;5.784;2023-02-10T07:09:24;103564.13;;;5.89;55.45
48848;BME280;36611;51.638;5.784;2023-02-10T07:11:51;103561.47;;;5.92;55.59
48848;BME280;36611;51.638;5.784;2023-02-10T07:14:17;103568.56;;;5.94;55.69
48848;BME280;36611;51.638;5.784;2023-02-10T07:16:44;103563.25;;;5.97;55.74
48848;BME280;36611;51.638;5.784;2023-02-10T07:19:11;103573.88;;;6.00;55.67
48848;BME280;36611;51.638;5.784;2023-02-10T07:21:37;103569.41;;;6.02;55.82
48848;BME280;36611;51.638;5.784;2023-02-10T07:24:05;103570.28;;;6.04;55.91
48848;BME280;36611;51.638;5.784;2023-02-10T07:26:32;103578.25;;;6.08;55.93
48848;BME280;36611;51.638;5.784;2023-02-10T07:28:58;103588.03;;;6.10;56.11
48848;BME280;36611;51.638;5.784;2023-02-10T07:31:25;103587.13;;;6.13;56.21
48848;BME280;36611;51.638;5.784;2023-02-10T07:33:52;103584.41;;;6.16;56.15
48848;BME280;36611;51.638;5.784;2023-02-10T07:36:18;103582.59;;;6.19;56.26
48848;BME280;36611;51.638;5.784;2023-02-10T07:38:45;103581.69;;;6.23;56.22
48848;BME280;36611;51.638;5.784;2023-02-10T07:41:12;103573.66;;;6.26;56.37
48848;BME280;36611;51.638;5.784;2023-02-10T07:43:38;103581.59;;;6.32;56.34
48848;BME280;36611;51.638;5.784;2023-02-10T07:46:11;103580.69;;;6.35;56.38
48848;BME280;36611;51.638;5.784;2023-02-10T07:48:38;103580.63;;;6.40;56.43
48848;BME280;36611;51.638;5.784;2023-02-10T07:51:05;103569.91;;;6.43;56.49
48848;BME280;36611;51.638;5.784;2023-02-10T07:53:31;103574.31;;;6.47;56.58
48848;BME280;36611;51.638;5.784;2023-02-10T07:55:59;103580.53;;;6.50;56.63
48848;BME280;36611;51.638;5.784;2023-02-10T07:58:26;103586.72;;;6.52;56.61
48848;BME280;36611;51.638;5.784;2023-02-10T08:00:53;103587.56;;;6.56;56.68
48848;BME280;36611;51.638;5.784;2023-02-10T08:03:20;103587.53;;;6.60;56.69
48848;BME280;36611;51.638;5.784;2023-02-10T08:05:46;103586.59;;;6.64;56.67
48848;BME280;36611;51.638;5.784;2023-02-10T08:08:15;103581.22;;;6.69;56.96
48848;BME280;36611;51.638;5.784;2023-02-10T08:10:42;103586.53;;;6.72;56.96
48848;BME280;36611;51.638;5.784;2023-02-10T08:13:10;103599.88;;;6.74;56.92
48848;BME280;36611;51.638;5.784;2023-02-10T08:15:37;103607.00;;;6.75;57.05
48848;BME280;36611;51.638;5.784;2023-02-10T08:18:04;103604.28;;;6.78;57.10
48848;BME280;36611;51.638;5.784;2023-02-10T08:20:30;103606.03;;;6.80;57.12
48848;BME280;36611;51.638;5.784;2023-02-10T08:22:57;103607.78;;;6.84;57.24
48848;BME280;36611;51.638;5.784;2023-02-10T08:25:26;103620.19;;;6.88;57.16
48848;BME280;36611;51.638;5.784;2023-02-10T08:27:53;103614.78;;;6.93;57.51
48848;BME280;36611;51.638;5.784;2023-02-10T08:30:20;103621.88;;;6.95;56.79
48848;BME280;36611;51.638;5.784;2023-02-10T08:32:47;103619.19;;;6.98;57.37
48848;BME280;36611;51.638;5.784;2023-02-10T08:35:15;103620.03;;;7.00;57.52
48848;BME280;36611;51.638;5.784;2023-02-10T08:37:42;103623.56;;;7.03;57.47
48848;BME280;36611;51.638;5.784;2023-02-10T08:40:09;103631.56;;;7.06;57.13
48848;BME280;36611;51.638;5.784;2023-02-10T08:42:36;103640.44;;;7.08;57.48
48848;BME280;36611;51.638;5.784;2023-02-10T08:45:02;103637.72;;;7.11;57.44
48848;BME280;36611;51.638;5.784;2023-02-10T08:47:29;103634.13;;;7.13;57.55
48848;BME280;36611;51.638;5.784;2023-02-10T08:49:56;103649.28;;;7.14;57.57
48848;BME280;36611;51.638;5.784;2023-02-10T08:52:23;103646.56;;;7.17;57.60
48848;BME280;36611;51.638;5.784;2023-02-10T08:54:49;103621.59;;;7.20;57.63
48848;BME280;36611;51.638;5.784;2023-02-10T08:57:17;103615.31;;;7.22;57.56
48848;BME280;36611;51.638;5.784;2023-02-10T08:59:44;103617.09;;;7.23;57.65
48848;BME280;36611;51.638;5.784;2023-02-10T09:02:12;103614.34;;;7.28;57.67
48848;BME280;36611;51.638;5.784;2023-02-10T09:04:39;103615.19;;;7.31;57.76
48848;BME280;36611;51.638;5.784;2023-02-10T09:07:07;103613.34;;;7.35;57.90
48848;BME280;36611;51.638;5.784;2023-02-10T09:09:38;103623.09;;;7.39;57.82
48848;BME280;36611;51.638;5.784;2023-02-10T09:12:05;103612.38;;;7.44;57.83
48848;BME280;36611;51.638;5.784;2023-02-10T09:14:31;103609.66;;;7.48;58.00
48848;BME280;36611;51.638;5.784;2023-02-10T09:16:58;103616.69;;;7.55;57.93
48848;BME280;36611;51.638;5.784;2023-02-10T09:19:25;103613.91;;;7.61;58.04
48848;BME280;36611;51.638;5.784;2023-02-10T09:21:51;103622.72;;;7.68;58.12
48848;BME280;36611;51.638;5.784;2023-02-10T09:24:18;103619.06;;;7.74;58.11
48848;BME280;36611;51.638;5.784;2023-02-10T09:26:45;103618.09;;;7.79;58.23
48848;BME280;36611;51.638;5.784;2023-02-10T09:29:11;103619.78;;;7.85;58.15
48848;BME280;36611;51.638;5.784;2023-02-10T09:31:38;103620.59;;;7.90;58.33
48848;BME280;36611;51.638;5.784;2023-02-10T09:34:05;103623.22;;;7.94;58.24
48848;BME280;36611;51.638;5.784;2023-02-10T09:36:32;103624.03;;;8.00;58.36
48848;BME280;36611;51.638;5.784;2023-02-10T09:38:59;103626.66;;;8.03;58.36
48848;BME280;36611;51.638;5.784;2023-02-10T09:41:32;103631.06;;;8.05;58.43
48848;BME280;36611;51.638;5.784;2023-02-10T09:47:09;103626.44;;;8.15;58.34
48848;BME280;36611;51.638;5.784;2023-02-10T09:49:54;103628.16;;;8.20;58.29
48848;BME280;36611;51.638;5.784;2023-02-10T09:55:30;103637.81;;;8.31;58.29
48848;BME280;36611;51.638;5.784;2023-02-10T09:58:02;103626.97;;;8.40;58.33
48848;BME280;36611;51.638;5.784;2023-02-10T10:00:42;103621.38;;;8.53;58.51
48848;BME280;36611;51.638;5.784;2023-02-10T10:03:15;103626.41;;;8.70;58.72
48848;BME280;36611;51.638;5.784;2023-02-10T10:06:03;103626.94;;;8.89;58.65
48848;BME280;36611;51.638;5.784;2023-02-10T10:08:45;103629.28;;;9.07;58.68
48848;BME280;36611;51.638;5.784;2023-02-10T10:11:33;103627.97;;;9.27;58.85
48848;BME280;36611;51.638;5.784;2023-02-10T10:14:02;103630.19;;;9.48;58.61
48848;BME280;36611;51.638;5.784;2023-02-10T10:22:00;103636.28;;;9.95;58.10
48848;BME280;36611;51.638;5.784;2023-02-10T10:24:42;103638.72;;;10.05;57.98
48848;BME280;36611;51.638;5.784;2023-02-10T10:32:16;103628.06;;;10.38;57.65
48848;BME280;36611;51.638;5.784;2023-02-10T10:34:53;103627.63;;;10.56;57.53
48848;BME280;36611;51.638;5.784;2023-02-10T10:37:23;103620.03;;;10.72;57.19
48848;BME280;36611;51.638;5.784;2023-02-10T10:39:54;103617.00;;;10.84;57.14
48848;BME280;36611;51.638;5.784;2023-02-10T10:42:42;103613.91;;;10.98;57.02
48848;BME280;36611;51.638;5.784;2023-02-10T10:45:24;103617.97;;;11.12;56.90
48848;BME280;36611;51.638;5.784;2023-02-10T10:50:26;103611.88;;;11.37;56.41
48848;BME280;36611;51.638;5.784;2023-02-10T10:52:55;103614.09;;;11.52;56.56
48848;BME280;36611;51.638;5.784;2023-02-10T10:55:37;103609.94;;;11.70;56.34
48848;BME280;36611;51.638;5.784;2023-02-10T11:00:53;103613.22;;;12.09;56.04
48848;BME280;36611;51.638;5.784;2023-02-10T11:03:21;103603.69;;;12.25;55.68
48848;BME280;36611;51.638;5.784;2023-02-10T11:11:14;103592.34;;;12.67;55.11
48848;BME280;36611;51.638;5.784;2023-02-10T11:14:01;103595.25;;;12.86;54.86
48848;BME280;36611;51.638;5.784;2023-02-10T11:16:29;103580.31;;;13.00;54.28
48848;BME280;36611;51.638;5.784;2023-02-10T11:18:58;103579.78;;;13.14;53.91
48848;BME280;36611;51.638;5.784;2023-02-10T11:21:37;103569.47;;;13.25;53.72
48848;BME280;36611;51.638;5.784;2023-02-10T11:24:17;103573.53;;;13.37;53.48
48848;BME280;36611;51.638;5.784;2023-02-10T11:26:57;103577.53;;;13.50;52.90
48848;BME280;36611;51.638;5.784;2023-02-10T11:29:25;103578.97;;;13.59;52.61
48848;BME280;36611;51.638;5.784;2023-02-10T11:31:52;103575.03;;;13.67;52.55
48848;BME280;36611;51.638;5.784;2023-02-10T11:34:28;103578.16;;;13.79;52.61
48848;BME280;36611;51.638;5.784;2023-02-10T11:36:57;103578.53;;;13.91;52.29
48848;BME280;36611;51.638;5.784;2023-02-10T11:39:35;103564.56;;;14.02;51.87
48848;BME280;36611;51.638;5.784;2023-02-10T11:44:35;103558.47;;;14.19;51.15
48848;BME280;36611;51.638;5.784;2023-02-10T11:47:04;103558.00;;;14.29;50.97
48848;BME280;36611;51.638;5.784;2023-02-10T11:49:35;103557.66;;;14.37;50.95
48848;BME280;36611;51.638;5.784;2023-02-10T11:52:04;103550.06;;;14.47;50.78
48848;BME280;36611;51.638;5.784;2023-02-10T11:54:31;103551.47;;;14.55;50.40
48848;BME280;36611;51.638;5.784;2023-02-10T12:00:24;103544.28;;;14.75;49.77
48848;BME280;36611;51.638;5.784;2023-02-10T12:08:52;103542.38;;;14.97;49.25
48848;BME280;36611;51.638;5.784;2023-02-10T12:25:57;103533.81;;;15.06;47.44
48848;BME280;36611;51.638;5.784;2023-02-10T12:45:54;103528.69;;;15.00;46.35
48848;BME280;36611;51.638;5.784;2023-02-10T12:48:54;103525.31;;;14.95;46.56
48848;BME280;36611;51.638;5.784;2023-02-10T12:54:18;103517.44;;;14.90;46.11
48848;BME280;36611;51.638;5.784;2023-02-10T12:56:56;103520.38;;;14.84;46.23
48848;BME280;36611;51.638;5.784;2023-02-10T12:59:28;103516.94;;;14.81;45.95
48848;BME280;36611;51.638;5.784;2023-02-10T13:02:04;103512.63;;;14.77;45.88
48848;BME280;36611;51.638;5.784;2023-02-10T13:04:47;103511.88;;;14.73;45.99
48848;BME280;36611;51.638;5.784;2023-02-10T13:10:17;103492.00;;;14.74;46.54
48848;BME280;36611;51.638;5.784;2023-02-10T13:12:48;103490.75;;;14.81;46.26
48848;BME280;36611;51.638;5.784;2023-02-10T13:15:21;103494.09;;;14.88;46.58
48848;BME280;36611;51.638;5.784;2023-02-10T13:17:51;103488.53;;;14.91;46.48
48848;BME280;36611;51.638;5.784;2023-02-10T13:23:16;103477.03;;;14.86;46.09
48848;BME280;36611;51.638;5.784;2023-02-10T13:28:54;103457.50;;;14.79;46.16
48848;BME280;36611;51.638;5.784;2023-02-10T13:31:37;103459.31;;;14.79;46.30
48848;BME280;36611;51.638;5.784;2023-02-10T13:34:26;103464.66;;;14.80;45.91
48848;BME280;36611;51.638;5.784;2023-02-10T13:39:56;103464.72;;;14.79;46.27
48848;BME280;36611;51.638;5.784;2023-02-10T13:42:27;103465.75;;;14.76;46.06
48848;BME280;36611;51.638;5.784;2023-02-10T13:45:20;103469.47;;;14.74;46.10
48848;BME280;36611;51.638;5.784;2023-02-10T13:47:48;103471.66;;;14.66;45.88
48848;BME280;36611;51.638;5.784;2023-02-10T13:50:40;103469.47;;;14.55;45.79
48848;BME280;36611;51.638;5.784;2023-02-10T13:53:44;103465.28;;;14.48;45.63
48848;BME280;36611;51.638;5.784;2023-02-10T14:01:48;103448.25;;;14.25;45.69
48848;BME280;36611;51.638;5.784;2023-02-10T14:06:47;103446.09;;;14.13;46.19
48848;BME280;36611;51.638;5.784;2023-02-10T14:09:21;103434.47;;;14.11;46.17
48848;BME280;36611;51.638;5.784;2023-02-10T14:11:50;103442.78;;;14.07;46.02
48848;BME280;36611;51.638;5.784;2023-02-10T14:14:27;103434.00;;;14.02;45.88
48848;BME280;36611;51.638;5.784;2023-02-10T14:19:37;103431.63;;;13.94;46.32
48848;BME280;36611;51.638;5.784;2023-02-10T14:22:06;103435.13;;;13.96;46.35
48848;BME280;36611;51.638;5.784;2023-02-10T14:24:45;103426.84;;;14.00;46.62
48848;BME280;36611;51.638;5.784;2023-02-10T14:27:18;103420.22;;;14.08;46.38
48848;BME280;36611;51.638;5.784;2023-02-10T14:30:02;103423.53;;;14.14;46.33
48848;BME280;36611;51.638;5.784;2023-02-10T14:32:30;103414.41;;;14.17;46.22
48848;BME280;36611;51.638;5.784;2023-02-10T14:35:00;103418.88;;;14.18;46.24
48848;BME280;36611;51.638;5.784;2023-02-10T14:37:27;103413.47;;;14.18;46.12
48848;BME280;36611;51.638;5.784;2023-02-10T14:40:00;103418.88;;;14.18;46.31
48848;BME280;36611;51.638;5.784;2023-02-10T14:42:29;103408.28;;;14.13;45.95
48848;BME280;36611;51.638;5.784;2023-02-10T14:44:59;103418.38;;;14.08;45.96
48848;BME280;36611;51.638;5.784;2023-02-10T14:47:33;103417.56;;;14.06;45.93
48848;BME280;36611;51.638;5.784;2023-02-10T14:50:01;103422.09;;;14.06;45.96
48848;BME280;36611;51.638;5.784;2023-02-10T14:52:32;103417.72;;;14.03;45.90
48848;BME280;36611;51.638;5.784;2023-02-10T14:57:50;103421.03;;;13.89;46.04
48848;BME280;36611;51.638;5.784;2023-02-10T15:00:17;103425.75;;;13.84;45.81
48848;BME280;36611;51.638;5.784;2023-02-10T15:03:03;103422.59;;;13.75;46.17
48848;BME280;36611;51.638;5.784;2023-02-10T15:05:45;103425.63;;;13.67;46.08
48848;BME280;36611;51.638;5.784;2023-02-10T15:08:20;103434.97;;;13.58;46.33
48848;BME280;36611;51.638;5.784;2023-02-10T15:10:50;103436.19;;;13.51;46.21
48848;BME280;36611;51.638;5.784;2023-02-10T15:13:27;103443.72;;;13.43;46.24